Gasquet, California
Current Conditions -  °F | °C
As of 6:56 PM on Sunday 23 Nov 2014 (Local Time) from KCEC Reporting Station
Clear Clear  
Wind Chill: 46°   Ceiling: Unl
Heat Index: 46°   Visibility: 10mi
Dew Point: 45°   Wind: 0mph
Humidity: 96%   Direction: NA
Pressure: 30.36"   Gusts: NA
Location:  41.85°N, 123.97°W
Report Text: KCEC 240256Z AUTO 00000KT 10SM CLR 08/07 A3036 RMK AO2 SLP280 T00780072 50000
Loading
Personal Weather Stations






























Interactive Weather Map New forecast layout! Learn more

10-Day Weather Forecast

Advertisements
Track Severe Weather on mobile